createdAt,value
2023-01-04T00:00:09.963Z,2.60
2023-01-04T00:00:19.899Z,4.70
2023-01-04T00:00:30.877Z,4.70
2023-01-04T00:00:39.933Z,4.60
2023-01-04T00:00:50.033Z,2.50
2023-01-04T00:01:00.068Z,2.20
2023-01-04T00:01:09.875Z,2.60
2023-01-04T00:01:19.864Z,2.50
2023-01-04T00:01:29.901Z,2.70
2023-01-04T00:01:39.875Z,2.50
2023-01-04T00:01:50.833Z,2.30
2023-01-04T00:01:59.957Z,3.00
2023-01-04T00:02:10.017Z,2.70
2023-01-04T00:02:19.935Z,2.80
2023-01-04T00:02:29.956Z,2.10
2023-01-04T00:02:41.071Z,2.50
2023-01-04T00:02:49.995Z,2.30
2023-01-04T00:03:00.011Z,2.60
2023-01-04T00:03:10.067Z,2.40
2023-01-04T00:03:20.036Z,2.50
2023-01-04T00:03:30.031Z,2.60
2023-01-04T00:03:40.055Z,2.60
2023-01-04T00:03:49.986Z,2.50
2023-01-04T00:03:59.930Z,1.80
2023-01-04T00:04:09.916Z,2.00
2023-01-04T00:04:19.855Z,2.30
2023-01-04T00:04:29.869Z,3.80
2023-01-04T00:04:39.857Z,3.90
2023-01-04T00:04:49.850Z,6.70
2023-01-04T00:04:59.862Z,3.80
2023-01-04T00:05:09.849Z,3.70
2023-01-04T00:05:19.851Z,2.40
2023-01-04T00:05:29.993Z,2.60
2023-01-04T00:05:39.848Z,2.90
2023-01-04T00:05:49.861Z,2.80
2023-01-04T00:05:59.889Z,3.90
2023-01-04T00:06:09.864Z,3.90
2023-01-04T00:06:19.884Z,3.80
2023-01-04T00:06:29.863Z,2.90
2023-01-04T00:06:39.879Z,2.90
2023-01-04T00:06:49.892Z,3.70
2023-01-04T00:06:59.856Z,3.70
2023-01-04T00:07:09.847Z,3.80
2023-01-04T00:07:19.854Z,3.20
2023-01-04T00:07:29.848Z,3.00
2023-01-04T00:07:39.864Z,2.70
2023-01-04T00:07:49.844Z,2.70
2023-01-04T00:07:59.839Z,2.80
2023-01-04T00:08:09.927Z,2.70
2023-01-04T00:08:19.842Z,2.30
2023-01-04T00:08:29.843Z,2.10
2023-01-04T00:08:39.842Z,1.80
2023-01-04T00:08:49.837Z,2.00
2023-01-04T00:08:59.845Z,2.10
2023-01-04T00:09:09.862Z,2.40
2023-01-04T00:09:19.844Z,2.50
2023-01-04T00:09:29.853Z,2.30
2023-01-04T00:09:40.373Z,2.50
2023-01-04T00:09:49.831Z,2.40
2023-01-04T00:09:59.847Z,2.30
2023-01-04T00:10:09.846Z,2.00
2023-01-04T00:10:19.827Z,2.30
2023-01-04T00:10:29.829Z,2.20
2023-01-04T00:10:39.829Z,2.10
2023-01-04T00:10:49.828Z,2.20
2023-01-04T00:11:00.333Z,2.50
2023-01-04T00:11:09.976Z,2.90
2023-01-04T00:11:19.852Z,2.80
2023-01-04T00:11:29.858Z,2.70
2023-01-04T00:11:39.848Z,2.50
2023-01-04T00:11:49.827Z,2.40
2023-01-04T00:12:00.350Z,4.40
2023-01-04T00:12:09.820Z,4.20
2023-01-04T00:12:19.854Z,4.30
2023-01-04T00:12:29.989Z,2.40
2023-01-04T00:12:39.844Z,3.60
2023-01-04T00:12:49.820Z,3.50
2023-01-04T00:12:59.830Z,3.60
2023-01-04T00:13:09.821Z,3.00
2023-01-04T00:13:19.884Z,2.60
2023-01-04T00:13:29.841Z,2.60
2023-01-04T00:13:39.811Z,2.50
2023-01-04T00:13:50.452Z,2.90
2023-01-04T00:13:59.825Z,2.70
2023-01-04T00:14:09.809Z,2.50
2023-01-04T00:14:19.822Z,2.10
2023-01-04T00:14:29.821Z,2.00
2023-01-04T00:14:39.812Z,2.30
2023-01-04T00:14:49.950Z,2.30
2023-01-04T00:14:59.812Z,2.40
2023-01-04T00:15:09.818Z,1.80
2023-01-04T00:15:19.909Z,2.20
2023-01-04T00:15:29.874Z,2.00
2023-01-04T00:15:40.435Z,7.40
2023-01-04T00:15:49.849Z,7.50
2023-01-04T00:16:05.581Z,7.70
2023-01-04T00:16:09.851Z,2.90
2023-01-04T00:16:19.923Z,2.90
2023-01-04T00:16:30.416Z,3.40
2023-01-04T00:16:40.445Z,3.40
2023-01-04T00:16:49.905Z,3.30
2023-01-04T00:16:59.889Z,2.60
2023-01-04T00:17:09.810Z,2.50
2023-01-04T00:17:19.797Z,2.60
2023-01-04T00:17:29.848Z,2.60
2023-01-04T00:17:39.808Z,3.30
2023-01-04T00:17:49.797Z,3.20
2023-01-04T00:17:59.802Z,6.90
2023-01-04T00:18:09.808Z,6.80
2023-01-04T00:18:19.800Z,6.70
2023-01-04T00:18:29.796Z,5.10
2023-01-04T00:18:39.826Z,3.00
2023-01-04T00:18:49.793Z,3.20
2023-01-04T00:18:59.800Z,2.40
2023-01-04T00:19:09.835Z,2.40
2023-01-04T00:19:19.791Z,2.40
2023-01-04T00:19:29.855Z,2.40
2023-01-04T00:19:39.787Z,2.50
2023-01-04T00:19:49.787Z,2.40
2023-01-04T00:19:59.787Z,2.50
2023-01-04T00:20:09.802Z,2.50
2023-01-04T00:20:19.781Z,2.40
2023-01-04T00:20:29.802Z,2.20
2023-01-04T00:20:39.797Z,2.30
2023-01-04T00:20:50.340Z,2.60
2023-01-04T00:20:59.949Z,2.70
2023-01-04T00:21:09.783Z,2.80
2023-01-04T00:21:19.799Z,2.70
2023-01-04T00:21:29.884Z,2.90
2023-01-04T00:21:39.780Z,2.90
2023-01-04T00:21:49.783Z,2.70
2023-01-04T00:21:59.890Z,2.40
2023-01-04T00:22:09.855Z,2.20
2023-01-04T00:22:19.788Z,2.30
2023-01-04T00:22:29.899Z,2.30
2023-01-04T00:22:39.802Z,2.00
2023-01-04T00:22:49.775Z,1.80
2023-01-04T00:22:59.773Z,1.80
2023-01-04T00:23:09.869Z,1.90
2023-01-04T00:23:19.779Z,1.90
2023-01-04T00:23:29.814Z,2.00
2023-01-04T00:23:40.344Z,3.00
2023-01-04T00:23:49.777Z,3.20
2023-01-04T00:23:59.785Z,3.20
2023-01-04T00:24:09.897Z,2.20
2023-01-04T00:24:19.781Z,2.00
2023-01-04T00:24:29.777Z,1.90
2023-01-04T00:24:39.766Z,2.10
2023-01-04T00:24:49.787Z,3.70
2023-01-04T00:24:59.922Z,4.10
2023-01-04T00:25:09.764Z,4.10
2023-01-04T00:25:19.759Z,2.50
2023-01-04T00:25:29.786Z,2.20
2023-01-04T00:25:39.773Z,2.10
2023-01-04T00:25:49.764Z,2.20
2023-01-04T00:25:59.755Z,2.00
2023-01-04T00:26:09.761Z,3.30
2023-01-04T00:26:19.773Z,3.30
2023-01-04T00:26:29.891Z,3.30
2023-01-04T00:26:39.801Z,3.40
2023-01-04T00:26:49.757Z,3.50
2023-01-04T00:26:59.782Z,3.60
2023-01-04T00:27:09.767Z,2.40
2023-01-04T00:27:19.752Z,3.70
2023-01-04T00:27:29.784Z,3.50
2023-01-04T00:27:39.766Z,3.60
2023-01-04T00:27:50.352Z,3.10
2023-01-04T00:27:59.754Z,3.20
2023-01-04T00:28:09.776Z,3.40
2023-01-04T00:28:19.755Z,2.50
2023-01-04T00:28:29.749Z,2.30
2023-01-04T00:28:39.759Z,1.70
2023-01-04T00:28:54.267Z,1.80
2023-01-04T00:28:59.752Z,1.90
2023-01-04T00:29:09.767Z,2.00
2023-01-04T00:29:20.447Z,2.00
2023-01-04T00:29:29.785Z,2.00
2023-01-04T00:29:39.744Z,1.70
2023-01-04T00:29:49.747Z,1.90
2023-01-04T00:29:59.763Z,1.80
2023-01-04T00:30:09.750Z,2.80
2023-01-04T00:30:19.751Z,2.60
2023-01-04T00:30:29.748Z,2.90
2023-01-04T00:30:39.807Z,2.30
2023-01-04T00:30:49.868Z,2.00
2023-01-04T00:30:59.794Z,2.00
2023-01-04T00:31:09.796Z,2.90
2023-01-04T00:31:19.805Z,2.90
2023-01-04T00:31:29.956Z,3.00
2023-01-04T00:31:39.775Z,4.70
2023-01-04T00:31:49.896Z,4.90
2023-01-04T00:31:59.769Z,4.80
2023-01-04T00:32:10.348Z,2.70
2023-01-04T00:32:19.745Z,2.40
2023-01-04T00:32:29.734Z,2.30
2023-01-04T00:32:39.729Z,2.30
2023-01-04T00:32:49.778Z,2.30
2023-01-04T00:32:59.733Z,2.50
2023-01-04T00:33:09.736Z,2.30
2023-01-04T00:33:19.797Z,2.30
2023-01-04T00:33:29.729Z,2.30
2023-01-04T00:33:39.730Z,2.30
2023-01-04T00:33:49.733Z,2.10
2023-01-04T00:33:59.743Z,1.80
2023-01-04T00:34:09.747Z,2.10
2023-01-04T00:34:19.736Z,2.10
2023-01-04T00:34:29.730Z,2.50
2023-01-04T00:34:39.743Z,2.30
2023-01-04T00:34:49.822Z,2.30
2023-01-04T00:34:59.722Z,2.20
2023-01-04T00:35:09.729Z,2.20
2023-01-04T00:35:44.262Z,2.40
2023-01-04T00:35:45.135Z,2.40
2023-01-04T00:35:46.770Z,2.40
2023-01-04T00:35:49.722Z,2.30
2023-01-04T00:35:59.712Z,2.50
2023-01-04T00:36:10.344Z,2.30
2023-01-04T00:36:19.715Z,2.10
2023-01-04T00:36:29.775Z,2.30
2023-01-04T00:36:39.734Z,2.40
2023-01-04T00:36:49.707Z,2.90
2023-01-04T00:36:59.775Z,2.80
2023-01-04T00:37:09.709Z,2.90
2023-01-04T00:37:19.707Z,2.60
2023-01-04T00:37:29.724Z,2.60
2023-01-04T00:37:39.711Z,2.80
2023-01-04T00:37:52.071Z,2.50
2023-01-04T00:37:59.714Z,2.50
2023-01-04T00:38:09.701Z,2.00
2023-01-04T00:38:19.707Z,2.30
2023-01-04T00:38:29.761Z,2.20
2023-01-04T00:38:39.705Z,5.10
2023-01-04T00:38:49.706Z,5.10
2023-01-04T00:39:00.345Z,5.10
2023-01-04T00:39:09.898Z,2.40
2023-01-04T00:39:19.708Z,2.20
2023-01-04T00:39:29.707Z,2.10
2023-01-04T00:39:39.702Z,1.60
2023-01-04T00:39:49.700Z,1.70
2023-01-04T00:39:59.696Z,1.80
2023-01-04T00:40:09.700Z,2.10
2023-01-04T00:40:19.724Z,2.40
2023-01-04T00:40:29.694Z,2.60
2023-01-04T00:40:39.703Z,2.30
2023-01-04T00:40:49.699Z,3.00
2023-01-04T00:40:59.700Z,3.10
2023-01-04T00:41:23.218Z,3.10
2023-01-04T00:41:49.245Z,2.30
2023-01-04T00:41:57.449Z,2.50
2023-01-04T00:41:59.255Z,2.70
2023-01-04T00:42:01.141Z,2.70
2023-01-04T00:42:03.497Z,2.60
2023-01-04T00:42:09.752Z,2.50
2023-01-04T00:42:20.344Z,2.60
2023-01-04T00:42:29.688Z,2.50
2023-01-04T00:42:39.684Z,2.50
2023-01-04T00:42:49.723Z,2.30
2023-01-04T00:42:59.689Z,2.30
2023-01-04T00:43:10.340Z,2.50
2023-01-04T00:43:19.717Z,2.70
2023-01-04T00:43:29.686Z,3.60
2023-01-04T00:43:39.681Z,3.80
2023-01-04T00:43:50.350Z,3.60
2023-01-04T00:43:59.692Z,2.60
2023-01-04T00:44:09.699Z,2.40
2023-01-04T00:44:19.680Z,2.50
2023-01-04T00:44:29.762Z,2.60
2023-01-04T00:44:39.686Z,2.40
2023-01-04T00:44:50.355Z,2.30
2023-01-04T00:44:59.674Z,2.20
2023-01-04T00:45:09.697Z,2.50
2023-01-04T00:45:19.678Z,2.80
2023-01-04T00:45:29.671Z,3.10
2023-01-04T00:45:39.691Z,2.90
2023-01-04T00:45:49.815Z,3.00
2023-01-04T00:46:00.393Z,2.90
2023-01-04T00:46:09.733Z,2.60
2023-01-04T00:46:19.711Z,2.30
2023-01-04T00:46:29.764Z,2.30
2023-01-04T00:46:39.764Z,2.70
2023-01-04T00:46:49.823Z,2.70
2023-01-04T00:46:59.692Z,3.00
2023-01-04T00:47:09.668Z,2.90
2023-01-04T00:47:20.867Z,3.60
2023-01-04T00:47:29.671Z,3.40
2023-01-04T00:47:39.661Z,3.50
2023-01-04T00:47:49.674Z,2.60
2023-01-04T00:47:59.684Z,2.80
2023-01-04T00:48:09.670Z,2.10
2023-01-04T00:48:19.663Z,2.10
2023-01-04T00:48:29.700Z,2.10
2023-01-04T00:48:40.592Z,3.60
2023-01-04T00:48:50.930Z,3.60
2023-01-04T00:49:00.749Z,3.50
2023-01-04T00:49:09.662Z,3.10
2023-01-04T00:49:19.684Z,3.10
2023-01-04T00:49:29.667Z,3.30
2023-01-04T00:49:39.675Z,2.50
2023-01-04T00:49:49.679Z,2.90
2023-01-04T00:49:59.659Z,2.60
2023-01-04T00:50:10.358Z,2.80
2023-01-04T00:50:19.659Z,2.20
2023-01-04T00:50:29.671Z,1.90
2023-01-04T00:50:39.691Z,1.90
2023-01-04T00:50:49.664Z,2.20
2023-01-04T00:50:59.708Z,2.70
2023-01-04T00:51:09.655Z,2.70
2023-01-04T00:51:19.660Z,3.10
2023-01-04T00:51:29.669Z,5.30
2023-01-04T00:51:39.643Z,5.30
2023-01-04T00:51:49.714Z,3.40
2023-01-04T00:52:00.371Z,2.70
2023-01-04T00:52:09.642Z,2.60
2023-01-04T00:52:19.653Z,2.70
2023-01-04T00:52:29.697Z,2.80
2023-01-04T00:52:39.652Z,3.10
2023-01-04T00:52:49.641Z,3.00
2023-01-04T00:53:00.353Z,3.30
2023-01-04T00:53:09.861Z,3.50
2023-01-04T00:53:19.642Z,3.90
2023-01-04T00:53:29.654Z,6.40
2023-01-04T00:53:39.633Z,6.40
2023-01-04T00:53:49.636Z,6.10
2023-01-04T00:53:59.639Z,2.70
2023-01-04T00:54:09.653Z,2.70
2023-01-04T00:54:19.657Z,3.00
2023-01-04T00:54:29.629Z,3.10
2023-01-04T00:54:39.638Z,3.10
2023-01-04T00:54:49.636Z,2.40
2023-01-04T00:54:59.642Z,2.50
2023-01-04T00:55:09.632Z,2.60
2023-01-04T00:55:19.630Z,2.90
2023-01-04T00:55:29.630Z,2.80
2023-01-04T00:55:39.658Z,2.60
2023-01-04T00:55:49.715Z,2.50
2023-01-04T00:55:59.680Z,2.30
2023-01-04T00:56:09.645Z,2.50
2023-01-04T00:56:19.632Z,2.40
2023-01-04T00:56:29.641Z,2.80
2023-01-04T00:56:39.638Z,3.20
2023-01-04T00:56:49.661Z,3.00
2023-01-04T00:57:00.521Z,2.80
2023-01-04T00:57:09.647Z,1.90
2023-01-04T00:57:19.627Z,1.90
2023-01-04T00:57:29.646Z,2.10
2023-01-04T00:57:39.772Z,2.80
2023-01-04T00:57:49.658Z,3.10
2023-01-04T00:57:59.618Z,3.10
2023-01-04T00:58:09.634Z,2.70
2023-01-04T00:58:19.623Z,3.30
2023-01-04T00:58:29.666Z,3.20
2023-01-04T00:58:39.617Z,3.30
2023-01-04T00:58:49.625Z,2.80
2023-01-04T00:58:59.611Z,2.90
2023-01-04T00:59:09.632Z,3.00
2023-01-04T00:59:19.628Z,2.80
2023-01-04T00:59:29.615Z,2.50
2023-01-04T00:59:39.616Z,2.60
2023-01-04T00:59:49.614Z,2.40
2023-01-04T00:59:59.686Z,2.50
2023-01-04T01:00:09.636Z,4.90
2023-01-04T01:00:19.618Z,4.90
2023-01-04T01:00:29.635Z,8.30
2023-01-04T01:00:39.609Z,4.30
2023-01-04T01:00:49.611Z,4.50
2023-01-04T01:00:59.611Z,2.80
2023-01-04T01:01:09.752Z,2.70
2023-01-04T01:01:20.457Z,2.70
2023-01-04T01:01:29.768Z,2.80
2023-01-04T01:01:39.754Z,2.60
2023-01-04T01:01:49.797Z,3.20
2023-01-04T01:02:00.506Z,3.30
2023-01-04T01:02:09.818Z,3.40
2023-01-04T01:02:19.776Z,2.40
2023-01-04T01:02:29.900Z,2.30
2023-01-04T01:02:39.980Z,2.70
2023-01-04T01:02:50.567Z,2.60
2023-01-04T01:02:59.932Z,2.70
2023-01-04T01:03:09.766Z,2.40
2023-01-04T01:03:19.826Z,2.40
2023-01-04T01:03:34.940Z,2.40
2023-01-04T01:03:39.862Z,2.50
2023-01-04T01:03:50.447Z,2.80
2023-01-04T01:03:59.735Z,2.60
2023-01-04T01:04:10.493Z,2.70
2023-01-04T01:04:19.719Z,2.30
2023-01-04T01:04:29.680Z,2.50
2023-01-04T01:04:39.602Z,2.30
2023-01-04T01:04:49.648Z,2.20
2023-01-04T01:04:59.603Z,2.10
2023-01-04T01:05:09.584Z,2.10
2023-01-04T01:05:19.586Z,2.50
2023-01-04T01:05:29.601Z,2.70
2023-01-04T01:05:39.583Z,2.80
2023-01-04T01:05:49.580Z,2.60
2023-01-04T01:05:59.586Z,2.70
2023-01-04T01:06:09.592Z,2.80
2023-01-04T01:06:19.601Z,2.80
2023-01-04T01:06:29.593Z,2.80
2023-01-04T01:06:39.596Z,2.70
2023-01-04T01:06:50.372Z,2.50
2023-01-04T01:06:59.715Z,2.60
2023-01-04T01:07:10.363Z,2.50
2023-01-04T01:07:19.584Z,4.50
2023-01-04T01:07:29.581Z,4.30
2023-01-04T01:07:39.578Z,4.20
2023-01-04T01:07:49.577Z,2.20
2023-01-04T01:07:59.645Z,2.50
2023-01-04T01:08:09.577Z,5.50
2023-01-04T01:08:19.596Z,5.30
2023-01-04T01:08:29.572Z,5.10
2023-01-04T01:08:39.581Z,2.30
2023-01-04T01:08:49.604Z,2.70
2023-01-04T01:08:59.624Z,2.50
2023-01-04T01:09:09.567Z,2.30
2023-01-04T01:09:19.586Z,2.40
2023-01-04T01:09:29.569Z,2.30
2023-01-04T01:09:39.576Z,2.80
2023-01-04T01:09:49.586Z,3.00
2023-01-04T01:09:59.579Z,3.40
2023-01-04T01:10:09.567Z,3.10
2023-01-04T01:10:19.579Z,2.80
2023-01-04T01:10:29.653Z,2.60
2023-01-04T01:10:39.570Z,2.50
2023-01-04T01:10:49.586Z,2.90
2023-01-04T01:10:59.561Z,2.70
2023-01-04T01:11:09.719Z,2.80
2023-01-04T01:11:19.578Z,2.20
2023-01-04T01:11:29.567Z,4.60
2023-01-04T01:11:39.673Z,4.60
2023-01-04T01:11:49.559Z,4.70
2023-01-04T01:11:59.569Z,2.50
2023-01-04T01:12:09.569Z,2.70
2023-01-04T01:12:19.590Z,2.70
2023-01-04T01:12:30.362Z,2.90
2023-01-04T01:12:39.690Z,2.60
2023-01-04T01:12:49.558Z,2.70
2023-01-04T01:12:59.557Z,2.90
2023-01-04T01:13:09.611Z,3.00
2023-01-04T01:13:19.617Z,2.70
2023-01-04T01:13:29.572Z,2.50
2023-01-04T01:13:39.577Z,2.50
2023-01-04T01:13:49.545Z,5.10
2023-01-04T01:13:59.663Z,5.00
2023-01-04T01:14:09.542Z,4.80
2023-01-04T01:14:19.576Z,4.20
2023-01-04T01:14:29.564Z,4.10
2023-01-04T01:14:39.567Z,4.10
2023-01-04T01:14:49.545Z,2.70
2023-01-04T01:15:00.805Z,2.70
2023-01-04T01:15:09.541Z,2.80
2023-01-04T01:15:20.491Z,2.70
2023-01-04T01:15:29.595Z,3.00
2023-01-04T01:15:39.605Z,3.20
2023-01-04T01:15:49.607Z,3.60
2023-01-04T01:15:59.623Z,3.50
2023-01-04T01:16:09.663Z,3.60
2023-01-04T01:16:37.956Z,3.20
2023-01-04T01:16:55.307Z,3.00
2023-01-04T01:16:57.649Z,2.90
2023-01-04T01:16:58.437Z,2.90
2023-01-04T01:16:59.751Z,3.00
2023-01-04T01:17:09.660Z,2.60
2023-01-04T01:17:19.564Z,2.70
2023-01-04T01:17:29.530Z,2.60
2023-01-04T01:17:39.530Z,2.90
2023-01-04T01:17:49.588Z,4.20
2023-01-04T01:17:59.547Z,4.20
2023-01-04T01:18:09.615Z,4.20
2023-01-04T01:18:19.597Z,2.60
2023-01-04T01:18:29.540Z,2.90
2023-01-04T01:18:39.567Z,2.80
2023-01-04T01:18:49.543Z,2.50
2023-01-04T01:18:59.529Z,2.30
2023-01-04T01:19:09.540Z,2.40
2023-01-04T01:19:19.611Z,2.60
2023-01-04T01:19:30.345Z,2.40
2023-01-04T01:19:39.561Z,2.50
2023-01-04T01:19:49.536Z,2.40
2023-01-04T01:19:59.522Z,2.60
2023-01-04T01:20:09.524Z,2.60
2023-01-04T01:20:19.577Z,2.60
2023-01-04T01:20:29.522Z,2.60
2023-01-04T01:20:39.544Z,2.50
2023-01-04T01:20:49.520Z,3.90
2023-01-04T01:20:59.618Z,4.10
2023-01-04T01:21:09.530Z,4.10
2023-01-04T01:21:19.548Z,2.90
2023-01-04T01:21:29.515Z,2.90
2023-01-04T01:21:39.577Z,2.90
2023-01-04T01:21:49.599Z,2.80
2023-01-04T01:21:59.510Z,2.70
2023-01-04T01:22:09.536Z,2.60
2023-01-04T01:22:22.366Z,4.00
2023-01-04T01:22:29.513Z,3.70
2023-01-04T01:22:39.512Z,6.20
2023-01-04T01:22:49.522Z,3.90
2023-01-04T01:22:59.521Z,3.90
2023-01-04T01:23:09.559Z,3.00
2023-01-04T01:23:19.513Z,3.30
2023-01-04T01:23:29.593Z,2.90
2023-01-04T01:23:39.503Z,2.70
2023-01-04T01:23:49.504Z,2.60
2023-01-04T01:23:59.516Z,2.90
2023-01-04T01:24:09.532Z,3.30
2023-01-04T01:24:19.514Z,3.10
2023-01-04T01:24:29.522Z,2.70
2023-01-04T01:24:39.511Z,2.70
2023-01-04T01:24:49.498Z,2.50
2023-01-04T01:24:59.501Z,2.50
2023-01-04T01:25:09.575Z,2.70
2023-01-04T01:25:20.477Z,2.60
2023-01-04T01:25:29.500Z,2.90
2023-01-04T01:25:39.499Z,2.70
2023-01-04T01:25:49.501Z,2.80
2023-01-04T01:25:59.500Z,2.90
2023-01-04T01:26:09.494Z,2.80
2023-01-04T01:26:20.396Z,2.80
2023-01-04T01:26:29.504Z,5.10
2023-01-04T01:26:39.501Z,5.00
2023-01-04T01:26:49.504Z,7.70
2023-01-04T01:26:59.520Z,8.00
2023-01-04T01:27:10.352Z,8.20
2023-01-04T01:27:19.498Z,5.30
2023-01-04T01:27:30.462Z,2.80
2023-01-04T01:27:39.501Z,3.10
2023-01-04T01:27:49.495Z,3.00
2023-01-04T01:27:59.598Z,2.90
2023-01-04T01:28:09.503Z,2.50
2023-01-04T01:28:19.491Z,2.70
2023-01-04T01:28:29.523Z,2.80
2023-01-04T01:28:39.541Z,3.40
2023-01-04T01:28:49.506Z,3.10
2023-01-04T01:28:59.489Z,2.90
2023-01-04T01:29:09.505Z,2.40
2023-01-04T01:29:20.417Z,2.30
2023-01-04T01:29:29.478Z,4.30
2023-01-04T01:29:39.479Z,6.70
2023-01-04T01:29:49.482Z,6.60
2023-01-04T01:29:59.519Z,3.70
2023-01-04T01:30:09.479Z,3.10
2023-01-04T01:30:19.497Z,3.30
2023-01-04T01:30:29.480Z,3.00
2023-01-04T01:30:39.502Z,2.80
2023-01-04T01:30:49.530Z,2.70
2023-01-04T01:31:02.461Z,2.30
2023-01-04T01:31:09.538Z,2.60
2023-01-04T01:31:19.543Z,2.80
2023-01-04T01:31:29.519Z,2.70
2023-01-04T01:31:39.560Z,2.30
2023-01-04T01:31:49.558Z,2.20
2023-01-04T01:31:59.569Z,4.50
2023-01-04T01:32:09.528Z,4.60
2023-01-04T01:32:19.477Z,4.70
2023-01-04T01:32:29.466Z,2.50
2023-01-04T01:32:39.548Z,3.60
2023-01-04T01:32:49.464Z,3.70
2023-01-04T01:32:59.488Z,8.00
2023-01-04T01:33:09.480Z,5.10
2023-01-04T01:33:19.467Z,5.20
2023-01-04T01:33:30.398Z,2.40
2023-01-04T01:33:39.474Z,2.70
2023-01-04T01:33:50.349Z,2.70
2023-01-04T01:33:59.544Z,2.80
2023-01-04T01:34:09.466Z,2.60
2023-01-04T01:34:19.484Z,2.30
2023-01-04T01:34:29.486Z,2.60
2023-01-04T01:34:39.452Z,14.70
2023-01-04T01:34:49.470Z,14.80
2023-01-04T01:34:59.467Z,16.90
2023-01-04T01:35:09.462Z,3.30
2023-01-04T01:35:19.454Z,3.40
2023-01-04T01:35:29.461Z,3.00
2023-01-04T01:35:39.451Z,3.50
2023-01-04T01:35:50.389Z,3.40
2023-01-04T01:35:59.458Z,3.20
2023-01-04T01:36:09.449Z,2.60
2023-01-04T01:36:19.539Z,2.90
2023-01-04T01:36:29.470Z,2.70
2023-01-04T01:36:39.450Z,2.30
2023-01-04T01:36:49.447Z,2.30
2023-01-04T01:36:59.479Z,2.30
2023-01-04T01:37:09.456Z,3.30
2023-01-04T01:37:19.496Z,3.40
2023-01-04T01:37:29.458Z,3.20
2023-01-04T01:37:39.482Z,3.10
2023-01-04T01:37:49.635Z,3.10
2023-01-04T01:37:59.455Z,3.10
2023-01-04T01:38:09.460Z,1.90
2023-01-04T01:38:20.370Z,2.30
2023-01-04T01:38:29.439Z,2.20
2023-01-04T01:38:39.456Z,2.40
2023-01-04T01:38:49.443Z,2.40
2023-01-04T01:38:59.934Z,6.10
2023-01-04T01:39:09.445Z,5.90
2023-01-04T01:39:19.437Z,8.20
2023-01-04T01:39:29.434Z,5.40
2023-01-04T01:39:39.439Z,5.50
2023-01-04T01:39:49.434Z,3.20
2023-01-04T01:39:59.496Z,3.70
2023-01-04T01:40:09.452Z,3.70
2023-01-04T01:40:19.450Z,3.50
2023-01-04T01:40:29.440Z,2.70
2023-01-04T01:40:39.436Z,2.60
2023-01-04T01:40:49.446Z,3.10
2023-01-04T01:40:59.435Z,3.00
2023-01-04T01:41:09.431Z,2.80
2023-01-04T01:41:19.433Z,2.50
2023-01-04T01:41:29.437Z,2.40
2023-01-04T01:41:39.447Z,5.60
2023-01-04T01:41:50.439Z,5.50
2023-01-04T01:41:59.435Z,5.70
2023-01-04T01:42:09.446Z,2.50
2023-01-04T01:42:20.514Z,2.30
2023-01-04T01:42:29.423Z,1.90
2023-01-04T01:42:39.424Z,1.90
2023-01-04T01:42:49.436Z,2.10
2023-01-04T01:42:59.422Z,2.20
2023-01-04T01:43:09.420Z,2.00
2023-01-04T01:43:19.424Z,4.00
2023-01-04T01:43:30.370Z,6.50
2023-01-04T01:43:39.427Z,6.60
2023-01-04T01:43:49.444Z,8.60
2023-01-04T01:43:59.518Z,5.90
2023-01-04T01:44:09.512Z,5.80
2023-01-04T01:44:19.419Z,2.10
2023-01-04T01:44:29.421Z,2.40
2023-01-04T01:44:40.354Z,2.50
2023-01-04T01:44:49.417Z,2.80
2023-01-04T01:44:59.426Z,3.20
2023-01-04T01:45:09.409Z,3.20
2023-01-04T01:45:19.432Z,3.40
2023-01-04T01:45:29.421Z,3.30
2023-01-04T01:45:39.416Z,3.40
2023-01-04T01:45:49.408Z,3.10
2023-01-04T01:45:59.457Z,7.40
2023-01-04T01:46:09.475Z,20.50
2023-01-04T01:46:19.526Z,18.40
2023-01-04T01:46:30.422Z,13.90
2023-01-04T01:46:40.426Z,2.10
2023-01-04T01:46:49.515Z,2.50
2023-01-04T01:46:59.444Z,2.60
2023-01-04T01:47:09.425Z,2.60
2023-01-04T01:47:19.405Z,2.30
2023-01-04T01:47:29.495Z,2.00
2023-01-04T01:47:39.397Z,2.70
2023-01-04T01:47:49.411Z,2.70
2023-01-04T01:47:59.395Z,2.90
2023-01-04T01:48:09.418Z,2.70
2023-01-04T01:48:19.405Z,2.50
2023-01-04T01:48:29.400Z,2.20
2023-01-04T01:48:39.403Z,2.50
2023-01-04T01:48:49.436Z,2.50
2023-01-04T01:48:59.399Z,2.60
2023-01-04T01:49:09.393Z,2.50
2023-01-04T01:49:19.460Z,2.20
2023-01-04T01:49:29.397Z,3.00
2023-01-04T01:49:39.390Z,2.60
2023-01-04T01:49:49.396Z,2.80
2023-01-04T01:49:59.395Z,1.80
2023-01-04T01:50:10.420Z,2.40
2023-01-04T01:50:19.390Z,5.10
2023-01-04T01:50:29.400Z,5.00
2023-01-04T01:50:39.392Z,4.60
2023-01-04T01:50:49.384Z,2.40
2023-01-04T01:50:59.388Z,2.40
2023-01-04T01:51:09.391Z,2.30
2023-01-04T01:51:19.445Z,2.30
2023-01-04T01:51:29.390Z,2.20
2023-01-04T01:51:40.449Z,2.20
2023-01-04T01:51:49.384Z,2.80
2023-01-04T01:51:59.381Z,2.70
2023-01-04T01:52:09.382Z,2.90
2023-01-04T01:52:19.404Z,2.20
2023-01-04T01:52:29.396Z,2.40
2023-01-04T01:52:39.406Z,2.40
2023-01-04T01:52:49.399Z,2.40
2023-01-04T01:52:59.440Z,3.60
2023-01-04T01:53:09.387Z,3.30
2023-01-04T01:53:19.395Z,3.30
2023-01-04T01:53:29.385Z,2.30
2023-01-04T01:53:39.373Z,2.40
2023-01-04T01:53:49.377Z,2.60
2023-01-04T01:53:59.374Z,2.10
2023-01-04T01:54:09.371Z,1.90
2023-01-04T01:54:19.393Z,2.00
2023-01-04T01:54:29.684Z,2.20
2023-01-04T01:54:39.367Z,2.20
2023-01-04T01:54:50.364Z,2.10
2023-01-04T01:54:59.367Z,2.00
2023-01-04T01:55:09.382Z,2.00
2023-01-04T01:55:19.377Z,2.90
2023-01-04T01:55:29.374Z,3.20
2023-01-04T01:55:39.470Z,3.00
2023-01-04T01:55:50.438Z,2.20
2023-01-04T01:55:59.364Z,2.10
2023-01-04T01:56:09.388Z,2.50
2023-01-04T01:56:19.365Z,2.40
2023-01-04T01:56:29.404Z,2.30
2023-01-04T01:56:39.385Z,2.40
2023-01-04T01:56:49.368Z,3.60
2023-01-04T01:56:59.380Z,3.70
2023-01-04T01:57:09.872Z,5.70
2023-01-04T01:57:19.372Z,3.20
2023-01-04T01:57:29.362Z,3.10
2023-01-04T01:57:39.389Z,2.20
2023-01-04T01:57:49.358Z,2.50
2023-01-04T01:57:59.363Z,2.70
2023-01-04T01:58:09.353Z,2.30
2023-01-04T01:58:19.868Z,2.30
2023-01-04T01:58:29.365Z,2.20
2023-01-04T01:58:39.401Z,2.30
2023-01-04T01:58:49.357Z,2.10
2023-01-04T01:58:59.398Z,2.30
2023-01-04T01:59:09.371Z,2.40
2023-01-04T01:59:19.894Z,2.60
2023-01-04T01:59:29.350Z,2.90
2023-01-04T01:59:39.411Z,2.50
2023-01-04T01:59:49.353Z,3.00
2023-01-04T01:59:59.382Z,2.90
2023-01-04T02:00:09.363Z,3.10
2023-01-04T02:00:19.341Z,2.30
2023-01-04T02:00:29.348Z,2.20
2023-01-04T02:00:39.372Z,2.40
2023-01-04T02:00:49.349Z,2.40
2023-01-04T02:00:59.340Z,2.60
2023-01-04T02:01:09.397Z,2.50
2023-01-04T02:01:19.521Z,2.50
2023-01-04T02:01:29.624Z,4.10
2023-01-04T02:01:39.481Z,4.10
2023-01-04T02:01:49.547Z,4.30
2023-01-04T02:01:59.507Z,2.50
2023-01-04T02:02:09.541Z,2.00
2023-01-04T02:02:19.570Z,2.00
2023-01-04T02:02:29.609Z,2.10
2023-01-04T02:02:39.555Z,2.30
2023-01-04T02:02:50.157Z,2.40
2023-01-04T02:02:59.452Z,2.40
2023-01-04T02:03:10.019Z,2.20
2023-01-04T02:03:19.508Z,2.00
2023-01-04T02:03:29.512Z,2.00
2023-01-04T02:03:39.392Z,2.00
2023-01-04T02:03:49.428Z,4.40
2023-01-04T02:03:59.422Z,4.70
2023-01-04T02:04:09.471Z,4.70
2023-01-04T02:04:19.335Z,2.40
2023-01-04T02:04:29.333Z,2.30
2023-01-04T02:04:39.339Z,2.30
2023-01-04T02:04:49.378Z,2.00
2023-01-04T02:04:59.327Z,2.00
2023-01-04T02:05:09.329Z,4.70
2023-01-04T02:05:19.325Z,7.00
2023-01-04T02:05:29.326Z,6.90
2023-01-04T02:05:39.507Z,3.10
2023-01-04T02:05:49.328Z,2.50
2023-01-04T02:05:59.879Z,2.40
2023-01-04T02:06:09.368Z,2.30
2023-01-04T02:06:19.331Z,2.00
2023-01-04T02:06:29.318Z,1.90
2023-01-04T02:06:39.871Z,1.90
2023-01-04T02:06:49.860Z,2.10
2023-01-04T02:06:59.900Z,2.30
2023-01-04T02:07:09.327Z,3.20
2023-01-04T02:07:19.336Z,3.30
2023-01-04T02:07:29.321Z,3.40
2023-01-04T02:07:39.339Z,1.80
2023-01-04T02:07:49.309Z,1.80
2023-01-04T02:07:59.313Z,1.90
2023-01-04T02:08:09.314Z,2.10
2023-01-04T02:08:19.870Z,2.50
2023-01-04T02:08:29.886Z,2.60
2023-01-04T02:08:39.320Z,2.50
2023-01-04T02:08:49.303Z,2.20
2023-01-04T02:08:59.322Z,4.20
2023-01-04T02:09:09.318Z,4.50
2023-01-04T02:09:19.324Z,11.90
2023-01-04T02:09:29.319Z,8.70
2023-01-04T02:09:39.387Z,8.40
2023-01-04T02:09:49.385Z,2.10
2023-01-04T02:09:59.358Z,3.60
2023-01-04T02:10:09.315Z,3.80
2023-01-04T02:10:19.306Z,3.80
2023-01-04T02:10:29.309Z,2.70
2023-01-04T02:10:39.311Z,2.50
2023-01-04T02:10:49.873Z,2.40
2023-01-04T02:10:59.320Z,2.40
2023-01-04T02:11:09.900Z,2.20
2023-01-04T02:11:19.298Z,2.20
2023-01-04T02:11:29.298Z,1.80
2023-01-04T02:11:39.294Z,1.70
2023-01-04T02:11:49.294Z,1.90
2023-01-04T02:11:59.322Z,2.20
2023-01-04T02:12:09.293Z,2.50
2023-01-04T02:12:19.305Z,3.20
2023-01-04T02:12:29.872Z,3.00
2023-01-04T02:12:39.296Z,2.90
2023-01-04T02:12:49.301Z,1.80
2023-01-04T02:12:59.322Z,1.80
2023-01-04T02:13:09.290Z,3.40